Terminal Aerodrome Forecast
Issued by NWS Paducah, KY

Home | Current Version | Previous Version | Text Only | Print | Product List | Glossary On
Versions: 1 2 3 4 5 6 7 8 9 10 11 12 13 14 15 16 17 18 19 20 21 22 23 24
000
FTUS43 KPAH 232359
TAFEVV
TAF
KEVV 232359Z 2400/2424 VRB03KT P6SM VCSH OVC060
     FM240600 04005KT 5SM SHRA OVC008
     FM241100 06008KT 2SM SHRA VCTS OVC008CB
     FM241800 17010G18KT 2SM SHRA BR OVC007=

USA.gov is the U.S. government's official web portal to all federal, state and local government web resources and services.